Weather at Crane Island Airstrip

Public forecast

Using degrees Fahrenheit for public forecast. Weather courtesy of forecast.io.

Closest aviation weather report (METAR) to Crane Island Airstrip

Closest report is Friday Harbor Airport, 4.6 nm (8.5 km) SSW.

2024/05/20 04:53 (retrieved 1 hour ago)

KFHR 200453Z AUTO 35003KT 10SM CLR 09/07 A3023 RMK AO2 SLP238 T00940067

Closest aviation forecast (TAF) to Crane Island Airstrip

Forecast is more than 6 hours old.

Closest forecast is Victoria Harbour Seaplane Base, 18.2 nm (33.7 km) SW.

2024/05/19 21:00 (retrieved 9 hours ago)

TAF CYWH 192046Z 1921/2004 19005KT P6SM SCT030 RMK NXT FCST BY 201400Z